sensor_id;sensor_type;location;lat;lon;timestamp;P1;durP1;ratioP1;P2;durP2;ratioP2
10120;SDS011;5100;45.176;5.714;2023-06-22T00:01:56;14.18;;;4.78;;
10120;SDS011;5100;45.176;5.714;2023-06-22T00:04:22;11.77;;;5.18;;
10120;SDS011;5100;45.176;5.714;2023-06-22T00:06:48;9.50;;;4.28;;
10120;SDS011;5100;45.176;5.714;2023-06-22T00:09:14;11.93;;;4.78;;
10120;SDS011;5100;45.176;5.714;2023-06-22T00:11:40;7.55;;;4.75;;
10120;SDS011;5100;45.176;5.714;2023-06-22T00:14:06;8.45;;;4.43;;
10120;SDS011;5100;45.176;5.714;2023-06-22T00:16:32;6.43;;;4.10;;
10120;SDS011;5100;45.176;5.714;2023-06-22T00:19:00;9.13;;;4.97;;
10120;SDS011;5100;45.176;5.714;2023-06-22T00:21:27;11.30;;;4.15;;
10120;SDS011;5100;45.176;5.714;2023-06-22T00:23:53;9.27;;;5.10;;
10120;SDS011;5100;45.176;5.714;2023-06-22T00:26:19;8.20;;;4.60;;
10120;SDS011;5100;45.176;5.714;2023-06-22T00:28:46;8.77;;;4.72;;
10120;SDS011;5100;45.176;5.714;2023-06-22T00:31:12;7.37;;;4.68;;
10120;SDS011;5100;45.176;5.714;2023-06-22T00:33:39;9.65;;;5.20;;
10120;SDS011;5100;45.176;5.714;2023-06-22T00:36:05;9.35;;;4.35;;
10120;SDS011;5100;45.176;5.714;2023-06-22T00:38:33;8.20;;;4.47;;
10120;SDS011;5100;45.176;5.714;2023-06-22T00:41:00;6.50;;;4.32;;
10120;SDS011;5100;45.176;5.714;2023-06-22T00:43:26;10.20;;;5.03;;
10120;SDS011;5100;45.176;5.714;2023-06-22T00:45:52;7.93;;;4.30;;
10120;SDS011;5100;45.176;5.714;2023-06-22T00:48:22;10.40;;;4.47;;
10120;SDS011;5100;45.176;5.714;2023-06-22T00:50:48;15.80;;;4.80;;
10120;SDS011;5100;45.176;5.714;2023-06-22T00:53:16;7.05;;;4.05;;
10120;SDS011;5100;45.176;5.714;2023-06-22T00:55:44;8.35;;;4.62;;
10120;SDS011;5100;45.176;5.714;2023-06-22T00:58:12;9.38;;;4.50;;
10120;SDS011;5100;45.176;5.714;2023-06-22T01:00:40;7.45;;;4.03;;
10120;SDS011;5100;45.176;5.714;2023-06-22T01:03:07;7.85;;;4.32;;
10120;SDS011;5100;45.176;5.714;2023-06-22T01:05:36;6.25;;;4.00;;
10120;SDS011;5100;45.176;5.714;2023-06-22T01:16:31;7.00;;;4.60;;
10120;SDS011;5100;45.176;5.714;2023-06-22T01:21:52;8.23;;;4.15;;
10120;SDS011;5100;45.176;5.714;2023-06-22T01:24:22;11.18;;;5.00;;
10120;SDS011;5100;45.176;5.714;2023-06-22T01:29:30;8.35;;;4.65;;
10120;SDS011;5100;45.176;5.714;2023-06-22T01:31:58;7.60;;;4.47;;
10120;SDS011;5100;45.176;5.714;2023-06-22T01:34:27;8.13;;;4.40;;
10120;SDS011;5100;45.176;5.714;2023-06-22T01:36:55;11.55;;;4.72;;
10120;SDS011;5100;45.176;5.714;2023-06-22T01:39:23;8.52;;;4.30;;
10120;SDS011;5100;45.176;5.714;2023-06-22T01:41:51;7.43;;;3.92;;
10120;SDS011;5100;45.176;5.714;2023-06-22T01:44:19;8.30;;;4.22;;
10120;SDS011;5100;45.176;5.714;2023-06-22T01:46:45;9.55;;;4.55;;
10120;SDS011;5100;45.176;5.714;2023-06-22T01:49:13;10.48;;;4.15;;
10120;SDS011;5100;45.176;5.714;2023-06-22T01:51:39;8.73;;;4.32;;
10120;SDS011;5100;45.176;5.714;2023-06-22T01:54:06;11.90;;;4.70;;
10120;SDS011;5100;45.176;5.714;2023-06-22T01:56:33;10.57;;;4.50;;
10120;SDS011;5100;45.176;5.714;2023-06-22T01:59:04;8.77;;;3.83;;
10120;SDS011;5100;45.176;5.714;2023-06-22T02:01:51;6.87;;;4.90;;
10120;SDS011;5100;45.176;5.714;2023-06-22T02:04:26;9.75;;;4.45;;
10120;SDS011;5100;45.176;5.714;2023-06-22T02:06:58;8.10;;;4.97;;
10120;SDS011;5100;45.176;5.714;2023-06-22T02:09:25;6.80;;;4.03;;
10120;SDS011;5100;45.176;5.714;2023-06-22T02:11:55;9.77;;;4.10;;
10120;SDS011;5100;45.176;5.714;2023-06-22T02:14:22;9.55;;;4.30;;
10120;SDS011;5100;45.176;5.714;2023-06-22T02:16:50;10.60;;;4.68;;
10120;SDS011;5100;45.176;5.714;2023-06-22T02:19:17;10.13;;;4.15;;
10120;SDS011;5100;45.176;5.714;2023-06-22T02:21:48;7.57;;;4.55;;
10120;SDS011;5100;45.176;5.714;2023-06-22T02:24:14;8.60;;;4.15;;
10120;SDS011;5100;45.176;5.714;2023-06-22T02:26:40;8.05;;;4.37;;
10120;SDS011;5100;45.176;5.714;2023-06-22T02:29:08;9.88;;;4.80;;
10120;SDS011;5100;45.176;5.714;2023-06-22T02:31:33;8.55;;;4.65;;
10120;SDS011;5100;45.176;5.714;2023-06-22T02:34:00;5.40;;;3.70;;
10120;SDS011;5100;45.176;5.714;2023-06-22T02:36:25;9.25;;;4.22;;
10120;SDS011;5100;45.176;5.714;2023-06-22T02:38:56;12.15;;;5.30;;
10120;SDS011;5100;45.176;5.714;2023-06-22T02:41:26;10.63;;;5.07;;
10120;SDS011;5100;45.176;5.714;2023-06-22T02:43:55;7.15;;;3.85;;
10120;SDS011;5100;45.176;5.714;2023-06-22T02:46:21;9.98;;;4.43;;
10120;SDS011;5100;45.176;5.714;2023-06-22T02:48:48;10.63;;;4.75;;
10120;SDS011;5100;45.176;5.714;2023-06-22T02:51:14;7.37;;;4.07;;
10120;SDS011;5100;45.176;5.714;2023-06-22T02:53:40;10.35;;;4.22;;
10120;SDS011;5100;45.176;5.714;2023-06-22T02:56:11;9.27;;;4.03;;
10120;SDS011;5100;45.176;5.714;2023-06-22T02:58:38;7.00;;;3.72;;
10120;SDS011;5100;45.176;5.714;2023-06-22T03:01:05;10.73;;;4.35;;
10120;SDS011;5100;45.176;5.714;2023-06-22T03:03:32;7.32;;;4.30;;
10120;SDS011;5100;45.176;5.714;2023-06-22T03:05:58;11.75;;;4.93;;
10120;SDS011;5100;45.176;5.714;2023-06-22T03:08:26;7.00;;;4.20;;
10120;SDS011;5100;45.176;5.714;2023-06-22T03:10:54;5.82;;;4.20;;
10120;SDS011;5100;45.176;5.714;2023-06-22T03:13:20;10.15;;;4.47;;
10120;SDS011;5100;45.176;5.714;2023-06-22T03:15:46;10.52;;;4.20;;
10120;SDS011;5100;45.176;5.714;2023-06-22T03:18:12;10.00;;;4.15;;
10120;SDS011;5100;45.176;5.714;2023-06-22T03:20:38;8.57;;;4.50;;
10120;SDS011;5100;45.176;5.714;2023-06-22T03:23:04;8.32;;;4.68;;
10120;SDS011;5100;45.176;5.714;2023-06-22T03:25:31;8.48;;;4.00;;
10120;SDS011;5100;45.176;5.714;2023-06-22T03:27:59;7.87;;;4.47;;
10120;SDS011;5100;45.176;5.714;2023-06-22T03:30:26;10.50;;;3.95;;
10120;SDS011;5100;45.176;5.714;2023-06-22T03:32:52;9.48;;;4.07;;
10120;SDS011;5100;45.176;5.714;2023-06-22T03:35:18;5.37;;;3.30;;
10120;SDS011;5100;45.176;5.714;2023-06-22T03:37:45;8.30;;;4.43;;
10120;SDS011;5100;45.176;5.714;2023-06-22T03:40:11;10.85;;;4.35;;
10120;SDS011;5100;45.176;5.714;2023-06-22T03:42:38;6.75;;;4.57;;
10120;SDS011;5100;45.176;5.714;2023-06-22T03:45:04;7.35;;;4.68;;
10120;SDS011;5100;45.176;5.714;2023-06-22T03:47:31;8.43;;;4.62;;
10120;SDS011;5100;45.176;5.714;2023-06-22T03:49:57;7.65;;;4.25;;
10120;SDS011;5100;45.176;5.714;2023-06-22T03:52:23;6.50;;;4.15;;
10120;SDS011;5100;45.176;5.714;2023-06-22T03:54:51;8.88;;;5.10;;
10120;SDS011;5100;45.176;5.714;2023-06-22T03:57:17;7.03;;;3.78;;
10120;SDS011;5100;45.176;5.714;2023-06-22T03:59:43;7.20;;;4.50;;
10120;SDS011;5100;45.176;5.714;2023-06-22T04:02:09;8.52;;;4.43;;
10120;SDS011;5100;45.176;5.714;2023-06-22T04:04:35;8.68;;;4.45;;
10120;SDS011;5100;45.176;5.714;2023-06-22T04:07:01;11.05;;;4.60;;
10120;SDS011;5100;45.176;5.714;2023-06-22T04:09:27;9.43;;;3.67;;
10120;SDS011;5100;45.176;5.714;2023-06-22T04:11:53;15.18;;;4.72;;
10120;SDS011;5100;45.176;5.714;2023-06-22T04:14:19;8.57;;;4.55;;
10120;SDS011;5100;45.176;5.714;2023-06-22T04:16:45;8.23;;;4.40;;
10120;SDS011;5100;45.176;5.714;2023-06-22T04:19:11;8.75;;;4.25;;
10120;SDS011;5100;45.176;5.714;2023-06-22T04:21:42;6.90;;;4.07;;
10120;SDS011;5100;45.176;5.714;2023-06-22T04:24:10;10.43;;;4.72;;
10120;SDS011;5100;45.176;5.714;2023-06-22T04:26:39;7.28;;;4.40;;
10120;SDS011;5100;45.176;5.714;2023-06-22T04:29:07;9.60;;;5.15;;
10120;SDS011;5100;45.176;5.714;2023-06-22T04:31:36;7.15;;;4.93;;
10120;SDS011;5100;45.176;5.714;2023-06-22T04:34:04;7.00;;;5.12;;
10120;SDS011;5100;45.176;5.714;2023-06-22T04:36:40;8.15;;;4.95;;
10120;SDS011;5100;45.176;5.714;2023-06-22T04:39:07;10.68;;;4.00;;
10120;SDS011;5100;45.176;5.714;2023-06-22T04:41:37;8.10;;;4.80;;
10120;SDS011;5100;45.176;5.714;2023-06-22T04:44:12;10.85;;;5.57;;
10120;SDS011;5100;45.176;5.714;2023-06-22T04:46:49;8.73;;;5.45;;
10120;SDS011;5100;45.176;5.714;2023-06-22T04:49:20;9.15;;;4.80;;
10120;SDS011;5100;45.176;5.714;2023-06-22T04:51:47;11.50;;;5.12;;
10120;SDS011;5100;45.176;5.714;2023-06-22T04:54:13;10.05;;;5.00;;
10120;SDS011;5100;45.176;5.714;2023-06-22T04:56:39;13.80;;;5.72;;
10120;SDS011;5100;45.176;5.714;2023-06-22T04:59:06;9.55;;;5.35;;
10120;SDS011;5100;45.176;5.714;2023-06-22T05:01:33;10.60;;;5.20;;
10120;SDS011;5100;45.176;5.714;2023-06-22T05:04:00;8.25;;;5.05;;
10120;SDS011;5100;45.176;5.714;2023-06-22T05:06:27;9.88;;;4.70;;
10120;SDS011;5100;45.176;5.714;2023-06-22T05:08:54;7.57;;;4.40;;
10120;SDS011;5100;45.176;5.714;2023-06-22T05:11:25;9.40;;;4.45;;
10120;SDS011;5100;45.176;5.714;2023-06-22T05:13:51;9.20;;;4.55;;
10120;SDS011;5100;45.176;5.714;2023-06-22T05:16:17;11.50;;;5.70;;
10120;SDS011;5100;45.176;5.714;2023-06-22T05:18:50;12.70;;;5.12;;
10120;SDS011;5100;45.176;5.714;2023-06-22T05:21:17;6.62;;;4.15;;
10120;SDS011;5100;45.176;5.714;2023-06-22T05:23:44;8.18;;;4.80;;
10120;SDS011;5100;45.176;5.714;2023-06-22T05:26:10;9.93;;;4.80;;
10120;SDS011;5100;45.176;5.714;2023-06-22T05:28:36;9.63;;;4.45;;
10120;SDS011;5100;45.176;5.714;2023-06-22T05:31:02;8.00;;;4.50;;
10120;SDS011;5100;45.176;5.714;2023-06-22T05:33:29;10.23;;;4.62;;
10120;SDS011;5100;45.176;5.714;2023-06-22T05:35:55;8.43;;;4.62;;
10120;SDS011;5100;45.176;5.714;2023-06-22T05:38:21;12.55;;;4.85;;
10120;SDS011;5100;45.176;5.714;2023-06-22T05:40:47;12.40;;;4.95;;
10120;SDS011;5100;45.176;5.714;2023-06-22T05:43:13;8.27;;;4.65;;
10120;SDS011;5100;45.176;5.714;2023-06-22T05:45:39;8.15;;;4.68;;
10120;SDS011;5100;45.176;5.714;2023-06-22T05:48:05;10.80;;;4.30;;
10120;SDS011;5100;45.176;5.714;2023-06-22T05:50:31;7.37;;;4.60;;
10120;SDS011;5100;45.176;5.714;2023-06-22T05:52:57;9.52;;;4.75;;
10120;SDS011;5100;45.176;5.714;2023-06-22T05:55:23;12.85;;;4.90;;
10120;SDS011;5100;45.176;5.714;2023-06-22T05:57:49;11.65;;;4.97;;
10120;SDS011;5100;45.176;5.714;2023-06-22T06:00:15;6.93;;;4.55;;
10120;SDS011;5100;45.176;5.714;2023-06-22T06:02:41;6.18;;;4.50;;
10120;SDS011;5100;45.176;5.714;2023-06-22T06:05:12;8.43;;;5.00;;
10120;SDS011;5100;45.176;5.714;2023-06-22T06:07:42;12.15;;;4.93;;
10120;SDS011;5100;45.176;5.714;2023-06-22T06:10:09;8.23;;;4.30;;
10120;SDS011;5100;45.176;5.714;2023-06-22T06:12:35;9.25;;;4.72;;
10120;SDS011;5100;45.176;5.714;2023-06-22T06:15:02;12.95;;;4.70;;
10120;SDS011;5100;45.176;5.714;2023-06-22T06:17:28;16.20;;;5.60;;
10120;SDS011;5100;45.176;5.714;2023-06-22T06:19:54;10.63;;;4.60;;
10120;SDS011;5100;45.176;5.714;2023-06-22T06:22:20;13.13;;;4.82;;
10120;SDS011;5100;45.176;5.714;2023-06-22T06:24:49;9.93;;;4.60;;
10120;SDS011;5100;45.176;5.714;2023-06-22T06:27:15;8.93;;;4.50;;
10120;SDS011;5100;45.176;5.714;2023-06-22T06:29:43;9.32;;;4.72;;
10120;SDS011;5100;45.176;5.714;2023-06-22T06:32:13;12.77;;;5.47;;
10120;SDS011;5100;45.176;5.714;2023-06-22T06:34:39;13.57;;;5.25;;
10120;SDS011;5100;45.176;5.714;2023-06-22T06:37:06;10.35;;;5.37;;
10120;SDS011;5100;45.176;5.714;2023-06-22T06:39:32;11.45;;;4.65;;
10120;SDS011;5100;45.176;5.714;2023-06-22T06:41:57;7.90;;;4.87;;
10120;SDS011;5100;45.176;5.714;2023-06-22T06:44:24;6.97;;;4.47;;
10120;SDS011;5100;45.176;5.714;2023-06-22T06:46:50;14.90;;;4.80;;
10120;SDS011;5100;45.176;5.714;2023-06-22T06:49:16;13.60;;;5.70;;
10120;SDS011;5100;45.176;5.714;2023-06-22T06:51:42;11.48;;;5.12;;
10120;SDS011;5100;45.176;5.714;2023-06-22T06:54:08;10.98;;;4.57;;
10120;SDS011;5100;45.176;5.714;2023-06-22T06:56:34;10.40;;;4.87;;
10120;SDS011;5100;45.176;5.714;2023-06-22T06:59:00;9.15;;;5.07;;
10120;SDS011;5100;45.176;5.714;2023-06-22T07:01:26;12.45;;;4.70;;
10120;SDS011;5100;45.176;5.714;2023-06-22T07:03:52;11.77;;;5.25;;
10120;SDS011;5100;45.176;5.714;2023-06-22T07:06:19;7.50;;;4.85;;
10120;SDS011;5100;45.176;5.714;2023-06-22T07:08:45;9.15;;;4.62;;
10120;SDS011;5100;45.176;5.714;2023-06-22T07:11:11;9.98;;;4.85;;
10120;SDS011;5100;45.176;5.714;2023-06-22T07:13:37;8.73;;;4.70;;
10120;SDS011;5100;45.176;5.714;2023-06-22T07:16:03;14.25;;;4.93;;
10120;SDS011;5100;45.176;5.714;2023-06-22T07:18:29;10.13;;;5.65;;
10120;SDS011;5100;45.176;5.714;2023-06-22T07:20:56;12.13;;;4.32;;
10120;SDS011;5100;45.176;5.714;2023-06-22T07:23:22;9.05;;;5.00;;
10120;SDS011;5100;45.176;5.714;2023-06-22T07:25:47;18.80;;;5.25;;
10120;SDS011;5100;45.176;5.714;2023-06-22T07:28:14;10.23;;;4.82;;
10120;SDS011;5100;45.176;5.714;2023-06-22T07:30:40;10.52;;;4.85;;
10120;SDS011;5100;45.176;5.714;2023-06-22T07:33:06;9.18;;;4.10;;
10120;SDS011;5100;45.176;5.714;2023-06-22T07:35:34;11.07;;;4.75;;
10120;SDS011;5100;45.176;5.714;2023-06-22T07:38:00;9.57;;;4.45;;
10120;SDS011;5100;45.176;5.714;2023-06-22T07:40:26;9.27;;;4.20;;
10120;SDS011;5100;45.176;5.714;2023-06-22T07:42:52;12.93;;;3.50;;
10120;SDS011;5100;45.176;5.714;2023-06-22T07:45:18;10.15;;;3.60;;
10120;SDS011;5100;45.176;5.714;2023-06-22T07:47:44;8.63;;;2.95;;
10120;SDS011;5100;45.176;5.714;2023-06-22T07:50:10;5.90;;;3.10;;
10120;SDS011;5100;45.176;5.714;2023-06-22T07:52:36;6.57;;;3.25;;
10120;SDS011;5100;45.176;5.714;2023-06-22T07:55:02;13.55;;;3.35;;
10120;SDS011;5100;45.176;5.714;2023-06-22T07:57:29;11.02;;;2.95;;
10120;SDS011;5100;45.176;5.714;2023-06-22T08:00:03;9.40;;;2.53;;
10120;SDS011;5100;45.176;5.714;2023-06-22T08:02:44;7.47;;;2.90;;
10120;SDS011;5100;45.176;5.714;2023-06-22T08:05:11;7.28;;;2.58;;
10120;SDS011;5100;45.176;5.714;2023-06-22T08:07:38;10.00;;;3.22;;
10120;SDS011;5100;45.176;5.714;2023-06-22T08:10:05;8.57;;;2.90;;
10120;SDS011;5100;45.176;5.714;2023-06-22T08:12:31;6.87;;;3.37;;
10120;SDS011;5100;45.176;5.714;2023-06-22T08:14:57;10.05;;;3.22;;
10120;SDS011;5100;45.176;5.714;2023-06-22T08:17:24;7.10;;;2.90;;
10120;SDS011;5100;45.176;5.714;2023-06-22T08:19:50;5.37;;;2.75;;
10120;SDS011;5100;45.176;5.714;2023-06-22T08:22:16;5.65;;;2.78;;
10120;SDS011;5100;45.176;5.714;2023-06-22T08:24:43;12.05;;;3.10;;
10120;SDS011;5100;45.176;5.714;2023-06-22T08:27:09;7.18;;;3.10;;
10120;SDS011;5100;45.176;5.714;2023-06-22T08:29:41;7.15;;;2.62;;
10120;SDS011;5100;45.176;5.714;2023-06-22T08:32:11;7.85;;;3.62;;
10120;SDS011;5100;45.176;5.714;2023-06-22T08:34:37;5.47;;;2.75;;
10120;SDS011;5100;45.176;5.714;2023-06-22T08:37:08;5.87;;;2.58;;
10120;SDS011;5100;45.176;5.714;2023-06-22T08:39:34;6.70;;;2.62;;
10120;SDS011;5100;45.176;5.714;2023-06-22T08:42:00;9.25;;;2.67;;
10120;SDS011;5100;45.176;5.714;2023-06-22T08:44:26;9.88;;;3.00;;
10120;SDS011;5100;45.176;5.714;2023-06-22T08:46:52;6.37;;;2.70;;
10120;SDS011;5100;45.176;5.714;2023-06-22T08:49:18;9.32;;;3.12;;
10120;SDS011;5100;45.176;5.714;2023-06-22T08:51:44;5.57;;;2.80;;
10120;SDS011;5100;45.176;5.714;2023-06-22T08:54:13;9.30;;;3.67;;
10120;SDS011;5100;45.176;5.714;2023-06-22T08:56:39;9.13;;;3.08;;
10120;SDS011;5100;45.176;5.714;2023-06-22T08:59:05;6.70;;;3.22;;
10120;SDS011;5100;45.176;5.714;2023-06-22T09:01:33;10.45;;;3.40;;
10120;SDS011;5100;45.176;5.714;2023-06-22T09:03:59;9.10;;;3.65;;
10120;SDS011;5100;45.176;5.714;2023-06-22T09:06:25;8.10;;;3.83;;
10120;SDS011;5100;45.176;5.714;2023-06-22T09:08:52;13.75;;;3.37;;
10120;SDS011;5100;45.176;5.714;2023-06-22T09:11:17;10.30;;;3.75;;
10120;SDS011;5100;45.176;5.714;2023-06-22T09:13:43;11.88;;;3.03;;
10120;SDS011;5100;45.176;5.714;2023-06-22T09:16:10;6.70;;;2.70;;
10120;SDS011;5100;45.176;5.714;2023-06-22T09:18:37;6.72;;;3.05;;
10120;SDS011;5100;45.176;5.714;2023-06-22T09:21:02;8.65;;;3.35;;
10120;SDS011;5100;45.176;5.714;2023-06-22T09:23:29;14.20;;;3.00;;
10120;SDS011;5100;45.176;5.714;2023-06-22T09:25:55;8.82;;;3.25;;
10120;SDS011;5100;45.176;5.714;2023-06-22T09:28:21;11.40;;;3.10;;
10120;SDS011;5100;45.176;5.714;2023-06-22T09:30:47;7.55;;;3.10;;
10120;SDS011;5100;45.176;5.714;2023-06-22T09:33:13;9.98;;;3.67;;
10120;SDS011;5100;45.176;5.714;2023-06-22T09:35:39;10.63;;;3.20;;
10120;SDS011;5100;45.176;5.714;2023-06-22T09:38:05;8.85;;;2.70;;
10120;SDS011;5100;45.176;5.714;2023-06-22T09:40:31;7.05;;;2.65;;
10120;SDS011;5100;45.176;5.714;2023-06-22T09:43:00;7.60;;;2.70;;
10120;SDS011;5100;45.176;5.714;2023-06-22T09:45:26;8.88;;;3.50;;
10120;SDS011;5100;45.176;5.714;2023-06-22T09:47:52;7.93;;;2.67;;
10120;SDS011;5100;45.176;5.714;2023-06-22T09:50:18;9.45;;;3.25;;
10120;SDS011;5100;45.176;5.714;2023-06-22T09:52:44;6.57;;;3.00;;
10120;SDS011;5100;45.176;5.714;2023-06-22T09:55:15;9.30;;;3.15;;
10120;SDS011;5100;45.176;5.714;2023-06-22T09:57:42;9.90;;;3.33;;
10120;SDS011;5100;45.176;5.714;2023-06-22T10:00:08;9.85;;;3.25;;
10120;SDS011;5100;45.176;5.714;2023-06-22T10:02:35;9.90;;;3.55;;
10120;SDS011;5100;45.176;5.714;2023-06-22T10:05:01;13.95;;;3.50;;
10120;SDS011;5100;45.176;5.714;2023-06-22T10:07:26;7.82;;;2.92;;
10120;SDS011;5100;45.176;5.714;2023-06-22T10:09:53;8.10;;;3.42;;
10120;SDS011;5100;45.176;5.714;2023-06-22T10:12:18;9.63;;;3.25;;
10120;SDS011;5100;45.176;5.714;2023-06-22T10:14:44;9.23;;;3.37;;
10120;SDS011;5100;45.176;5.714;2023-06-22T10:17:10;10.38;;;3.35;;
10120;SDS011;5100;45.176;5.714;2023-06-22T10:19:37;8.63;;;3.40;;
10120;SDS011;5100;45.176;5.714;2023-06-22T10:22:04;9.50;;;3.22;;
10120;SDS011;5100;45.176;5.714;2023-06-22T10:24:30;8.77;;;3.33;;
10120;SDS011;5100;45.176;5.714;2023-06-22T10:26:56;7.65;;;2.67;;
10120;SDS011;5100;45.176;5.714;2023-06-22T10:29:22;7.43;;;2.83;;
10120;SDS011;5100;45.176;5.714;2023-06-22T10:31:48;9.23;;;3.50;;
10120;SDS011;5100;45.176;5.714;2023-06-22T10:34:14;9.07;;;2.83;;
10120;SDS011;5100;45.176;5.714;2023-06-22T10:36:40;14.10;;;3.83;;
10120;SDS011;5100;45.176;5.714;2023-06-22T10:39:07;16.67;;;4.82;;
10120;SDS011;5100;45.176;5.714;2023-06-22T10:41:32;8.55;;;2.70;;
10120;SDS011;5100;45.176;5.714;2023-06-22T10:43:58;8.38;;;3.05;;
10120;SDS011;5100;45.176;5.714;2023-06-22T10:46:25;12.98;;;3.10;;
10120;SDS011;5100;45.176;5.714;2023-06-22T10:48:51;8.20;;;2.62;;
10120;SDS011;5100;45.176;5.714;2023-06-22T10:51:19;9.55;;;3.12;;
10120;SDS011;5100;45.176;5.714;2023-06-22T10:53:46;8.88;;;2.95;;
10120;SDS011;5100;45.176;5.714;2023-06-22T10:56:12;8.70;;;3.28;;
10120;SDS011;5100;45.176;5.714;2023-06-22T10:58:38;9.77;;;3.12;;
10120;SDS011;5100;45.176;5.714;2023-06-22T11:01:04;8.40;;;3.47;;
10120;SDS011;5100;45.176;5.714;2023-06-22T11:03:30;11.12;;;3.33;;
10120;SDS011;5100;45.176;5.714;2023-06-22T11:05:55;6.55;;;2.83;;
10120;SDS011;5100;45.176;5.714;2023-06-22T11:08:22;9.15;;;2.95;;
10120;SDS011;5100;45.176;5.714;2023-06-22T11:10:48;9.23;;;3.17;;
10120;SDS011;5100;45.176;5.714;2023-06-22T11:13:14;5.43;;;3.17;;
10120;SDS011;5100;45.176;5.714;2023-06-22T11:15:40;6.20;;;3.10;;
10120;SDS011;5100;45.176;5.714;2023-06-22T11:18:06;7.93;;;3.00;;
10120;SDS011;5100;45.176;5.714;2023-06-22T11:20:32;9.05;;;3.50;;
10120;SDS011;5100;45.176;5.714;2023-06-22T11:23:06;12.37;;;3.62;;
10120;SDS011;5100;45.176;5.714;2023-06-22T11:25:33;5.10;;;2.80;;
10120;SDS011;5100;45.176;5.714;2023-06-22T11:28:04;7.57;;;3.40;;
10120;SDS011;5100;45.176;5.714;2023-06-22T11:30:30;6.40;;;2.90;;
10120;SDS011;5100;45.176;5.714;2023-06-22T11:32:56;14.90;;;2.65;;
10120;SDS011;5100;45.176;5.714;2023-06-22T11:35:25;6.05;;;2.83;;
10120;SDS011;5100;45.176;5.714;2023-06-22T11:37:51;4.70;;;2.62;;
10120;SDS011;5100;45.176;5.714;2023-06-22T11:40:17;7.30;;;3.30;;
10120;SDS011;5100;45.176;5.714;2023-06-22T11:42:43;5.90;;;2.58;;
10120;SDS011;5100;45.176;5.714;2023-06-22T11:45:09;7.68;;;2.67;;
10120;SDS011;5100;45.176;5.714;2023-06-22T11:47:35;7.00;;;3.00;;
10120;SDS011;5100;45.176;5.714;2023-06-22T11:50:02;6.57;;;3.35;;
10120;SDS011;5100;45.176;5.714;2023-06-22T11:52:28;7.80;;;3.83;;
10120;SDS011;5100;45.176;5.714;2023-06-22T11:54:54;7.45;;;3.40;;
10120;SDS011;5100;45.176;5.714;2023-06-22T11:57:20;7.37;;;2.80;;
10120;SDS011;5100;45.176;5.714;2023-06-22T11:59:46;12.07;;;3.85;;
10120;SDS011;5100;45.176;5.714;2023-06-22T12:02:12;9.07;;;3.42;;
10120;SDS011;5100;45.176;5.714;2023-06-22T12:04:38;7.12;;;2.78;;
10120;SDS011;5100;45.176;5.714;2023-06-22T12:07:04;14.95;;;3.60;;
10120;SDS011;5100;45.176;5.714;2023-06-22T12:09:30;8.30;;;3.00;;
10120;SDS011;5100;45.176;5.714;2023-06-22T12:11:56;15.25;;;3.15;;
10120;SDS011;5100;45.176;5.714;2023-06-22T12:14:22;5.50;;;3.10;;
10120;SDS011;5100;45.176;5.714;2023-06-22T12:16:48;7.18;;;3.03;;
10120;SDS011;5100;45.176;5.714;2023-06-22T12:19:14;6.93;;;2.80;;
10120;SDS011;5100;45.176;5.714;2023-06-22T12:21:40;4.20;;;2.65;;
10120;SDS011;5100;45.176;5.714;2023-06-22T12:24:06;8.15;;;2.92;;
10120;SDS011;5100;45.176;5.714;2023-06-22T12:26:32;6.72;;;3.03;;
10120;SDS011;5100;45.176;5.714;2023-06-22T12:28:58;8.93;;;3.28;;
10120;SDS011;5100;45.176;5.714;2023-06-22T12:31:24;10.52;;;3.50;;
10120;SDS011;5100;45.176;5.714;2023-06-22T12:33:50;10.98;;;3.25;;
10120;SDS011;5100;45.176;5.714;2023-06-22T12:36:16;14.35;;;3.00;;
10120;SDS011;5100;45.176;5.714;2023-06-22T12:38:42;8.60;;;3.12;;
10120;SDS011;5100;45.176;5.714;2023-06-22T12:41:08;7.20;;;3.15;;
10120;SDS011;5100;45.176;5.714;2023-06-22T12:43:34;5.53;;;2.62;;
10120;SDS011;5100;45.176;5.714;2023-06-22T12:46:00;4.05;;;2.72;;
10120;SDS011;5100;45.176;5.714;2023-06-22T12:48:27;8.02;;;3.28;;
10120;SDS011;5100;45.176;5.714;2023-06-22T12:50:53;7.12;;;2.95;;
10120;SDS011;5100;45.176;5.714;2023-06-22T12:53:19;7.37;;;3.20;;
10120;SDS011;5100;45.176;5.714;2023-06-22T12:55:45;5.30;;;2.95;;
10120;SDS011;5100;45.176;5.714;2023-06-22T12:58:11;9.59;;;3.11;;
10120;SDS011;5100;45.176;5.714;2023-06-22T13:00:37;6.50;;;2.85;;
10120;SDS011;5100;45.176;5.714;2023-06-22T13:03:04;7.35;;;3.12;;
10120;SDS011;5100;45.176;5.714;2023-06-22T13:05:30;5.55;;;2.78;;
10120;SDS011;5100;45.176;5.714;2023-06-22T13:07:56;3.70;;;3.12;;
10120;SDS011;5100;45.176;5.714;2023-06-22T13:10:22;7.75;;;3.08;;
10120;SDS011;5100;45.176;5.714;2023-06-22T13:12:48;5.47;;;3.00;;
10120;SDS011;5100;45.176;5.714;2023-06-22T13:15:14;10.13;;;3.25;;
10120;SDS011;5100;45.176;5.714;2023-06-22T13:17:40;11.15;;;3.33;;
10120;SDS011;5100;45.176;5.714;2023-06-22T13:20:06;5.93;;;2.90;;
10120;SDS011;5100;45.176;5.714;2023-06-22T13:22:32;4.53;;;2.87;;
10120;SDS011;5100;45.176;5.714;2023-06-22T13:25:05;9.85;;;2.87;;
10120;SDS011;5100;45.176;5.714;2023-06-22T13:27:32;4.87;;;2.95;;
10120;SDS011;5100;45.176;5.714;2023-06-22T13:29:58;10.25;;;3.40;;
10120;SDS011;5100;45.176;5.714;2023-06-22T13:32:24;8.27;;;3.30;;
10120;SDS011;5100;45.176;5.714;2023-06-22T13:34:51;12.45;;;3.50;;
10120;SDS011;5100;45.176;5.714;2023-06-22T13:37:17;10.50;;;3.95;;
10120;SDS011;5100;45.176;5.714;2023-06-22T13:39:44;7.00;;;3.28;;
10120;SDS011;5100;45.176;5.714;2023-06-22T13:42:10;7.20;;;3.08;;
10120;SDS011;5100;45.176;5.714;2023-06-22T13:44:36;10.25;;;4.05;;
10120;SDS011;5100;45.176;5.714;2023-06-22T13:47:02;24.70;;;5.20;;
10120;SDS011;5100;45.176;5.714;2023-06-22T13:49:30;12.52;;;3.08;;
10120;SDS011;5100;45.176;5.714;2023-06-22T13:51:56;12.25;;;2.83;;
10120;SDS011;5100;45.176;5.714;2023-06-22T13:54:22;5.45;;;2.05;;
10120;SDS011;5100;45.176;5.714;2023-06-22T13:56:48;4.93;;;1.70;;
10120;SDS011;5100;45.176;5.714;2023-06-22T13:59:14;1.70;;;1.37;;
10120;SDS011;5100;45.176;5.714;2023-06-22T14:01:40;3.50;;;1.92;;
10120;SDS011;5100;45.176;5.714;2023-06-22T14:04:07;3.50;;;1.73;;
10120;SDS011;5100;45.176;5.714;2023-06-22T14:06:33;7.00;;;2.22;;
10120;SDS011;5100;45.176;5.714;2023-06-22T14:08:59;4.72;;;2.00;;
10120;SDS011;5100;45.176;5.714;2023-06-22T14:11:25;3.87;;;2.62;;
10120;SDS011;5100;45.176;5.714;2023-06-22T14:13:51;3.33;;;1.83;;
10120;SDS011;5100;45.176;5.714;2023-06-22T14:16:17;3.83;;;1.87;;
10120;SDS011;5100;45.176;5.714;2023-06-22T14:18:44;1.50;;;1.30;;
10120;SDS011;5100;45.176;5.714;2023-06-22T14:21:13;5.70;;;2.00;;
10120;SDS011;5100;45.176;5.714;2023-06-22T14:23:39;2.17;;;1.65;;
10120;SDS011;5100;45.176;5.714;2023-06-22T14:26:05;2.97;;;1.90;;
10120;SDS011;5100;45.176;5.714;2023-06-22T14:28:31;4.70;;;1.80;;
10120;SDS011;5100;45.176;5.714;2023-06-22T14:30:57;3.10;;;1.65;;
10120;SDS011;5100;45.176;5.714;2023-06-22T14:33:23;2.67;;;1.50;;
10120;SDS011;5100;45.176;5.714;2023-06-22T14:35:49;3.28;;;1.62;;
10120;SDS011;5100;45.176;5.714;2023-06-22T14:38:15;5.72;;;1.83;;
10120;SDS011;5100;45.176;5.714;2023-06-22T14:40:41;1.98;;;1.77;;
10120;SDS011;5100;45.176;5.714;2023-06-22T14:43:07;4.55;;;1.70;;
10120;SDS011;5100;45.176;5.714;2023-06-22T14:45:33;2.80;;;1.67;;
10120;SDS011;5100;45.176;5.714;2023-06-22T14:47:59;1.75;;;1.60;;
10120;SDS011;5100;45.176;5.714;2023-06-22T14:50:25;3.58;;;1.80;;
10120;SDS011;5100;45.176;5.714;2023-06-22T14:52:51;4.65;;;1.60;;
10120;SDS011;5100;45.176;5.714;2023-06-22T14:55:18;2.60;;;1.85;;
10120;SDS011;5100;45.176;5.714;2023-06-22T14:57:44;2.40;;;1.65;;
10120;SDS011;5100;45.176;5.714;2023-06-22T15:00:10;1.95;;;1.65;;
10120;SDS011;5100;45.176;5.714;2023-06-22T15:02:36;3.45;;;1.60;;
10120;SDS011;5100;45.176;5.714;2023-06-22T15:05:02;3.53;;;1.80;;
10120;SDS011;5100;45.176;5.714;2023-06-22T15:07:28;3.22;;;1.77;;
10120;SDS011;5100;45.176;5.714;2023-06-22T15:09:54;2.87;;;1.85;;